WXM80 ListenWXM80 Stop

You find our weather info also at:

UK Metoffice

WeatherCloud

Weather Underground

Northeastern Weather Network

AWEKAS

Citizen Weather Observer Program (CWOP)

HAMweather, WeatherForYou, PWS Weather


Weather Underground History page Text

Daily Summary for May 3, 2017 Units:  Both    English   Metric
« Previous Day
Next Day »
Daily Weekly Monthly Yearly Custom
  High: Low: Average:
Temperature: 68.6 °F /  20.3 °C 49.8 °F /  9.9 °C 61.2 °F /  16.2 °C
Dew Point: 47.8 °F /  8.8 °C 39.5 °F /  4.2 °C 42.6 °F /  5.9 °C
Humidity: 69 % 37 % 51 %
Wind Speed: 11.1 mph /  17.9 km/h - 4.2 mph /  6.8 km/h
Wind Gust: 21.0 mph /  33.8 km/h - -
Wind:- - West
Pressure: 30.17 in /  1021.6 hPa 29.72 in /  1006.3 hPa -
Precipitation: 0.00 in /  0 mm    
Historical Graphs
 
 
Tabular Data for May 3, 2017
Time Temperature Dew Point Pressure Wind Wind Speed Wind Gust Humidity Rainfall Rate (Hourly)
00:02 62.3 °F /  16.8 °C 41.8 °F /  5.4 °C 29.72 in /  1006.3 hPa WSW 2.7 mph /  4.3 km/h 5.8 mph /  9.3 km/h 47 % 0.00 in /  0 mm
00:07 62.3 °F /  16.8 °C 42.3 °F /  5.7 °C 29.73 in /  1006.7 hPa West 3.2 mph /  5.1 km/h 9.2 mph /  14.8 km/h 48 % 0.00 in /  0 mm
00:08 62.3 °F /  16.8 °C 42.3 °F /  5.7 °C 29.73 in /  1006.7 hPa West 3.2 mph /  5.1 km/h 9.2 mph /  14.8 km/h 48 % 0.00 in /  0 mm
00:10 62.2 °F /  16.8 °C 41.7 °F /  5.4 °C 29.73 in /  1006.7 hPa West 4.7 mph /  7.6 km/h 8.1 mph /  13 km/h 47 % 0.00 in /  0 mm
00:14 62.1 °F /  16.7 °C 41.6 °F /  5.3 °C 29.72 in /  1006.3 hPa West 1.9 mph /  3.1 km/h 8.1 mph /  13 km/h 47 % 0.00 in /  0 mm
00:15 62.1 °F /  16.7 °C 41.6 °F /  5.3 °C 29.73 in /  1006.7 hPa NW 2.4 mph /  3.9 km/h 8.1 mph /  13 km/h 47 % 0.00 in /  0 mm
00:20 62.1 °F /  16.7 °C 41.6 °F /  5.3 °C 29.73 in /  1006.7 hPa WSW 2.7 mph /  4.3 km/h 8.1 mph /  13 km/h 47 % 0.00 in /  0 mm
00:25 62.1 °F /  16.7 °C 41.6 °F /  5.3 °C 29.73 in /  1006.7 hPa WSW 6.6 mph /  10.6 km/h 11.5 mph /  18.5 km/h 47 % 0.00 in /  0 mm
00:30 62.1 °F /  16.7 °C 41.1 °F /  5.1 °C 29.73 in /  1006.7 hPa WSW 6.8 mph /  10.9 km/h 16.1 mph /  25.9 km/h 46 % 0.00 in /  0 mm
00:35 62.1 °F /  16.7 °C 41.1 °F /  5.1 °C 29.73 in /  1006.7 hPa WNW 3.8 mph /  6.1 km/h 12.0 mph /  19.3 km/h 46 % 0.00 in /  0 mm
00:40 62.1 °F /  16.7 °C 41.6 °F /  5.3 °C 29.73 in /  1006.7 hPa WNW 1.9 mph /  3.1 km/h 5.8 mph /  9.3 km/h 47 % 0.00 in /  0 mm
00:45 62.0 °F /  16.7 °C 41.5 °F /  5.3 °C 29.73 in /  1006.7 hPa WSW 1.8 mph /  2.9 km/h 6.9 mph /  11.1 km/h 47 % 0.00 in /  0 mm
00:50 62.0 °F /  16.7 °C 41.5 °F /  5.3 °C 29.73 in /  1006.7 hPa West 4.0 mph /  6.4 km/h 8.1 mph /  13 km/h 47 % 0.00 in /  0 mm
00:55 62.0 °F /  16.7 °C 41.5 °F /  5.3 °C 29.73 in /  1006.7 hPa SSW 4.7 mph /  7.6 km/h 8.1 mph /  13 km/h 47 % 0.00 in /  0 mm
01:00 61.9 °F /  16.6 °C 42.0 °F /  5.6 °C 29.73 in /  1006.7 hPa WSW 2.5 mph /  4 km/h 5.8 mph /  9.3 km/h 48 % 0.00 in /  0 mm
01:05 61.8 °F /  16.6 °C 41.9 °F /  5.5 °C 29.73 in /  1006.7 hPa West 3.6 mph /  5.8 km/h 9.0 mph /  14.5 km/h 48 % 0.00 in /  0 mm
01:10 61.8 °F /  16.6 °C 41.9 °F /  5.5 °C 29.73 in /  1006.7 hPa West 4.2 mph /  6.8 km/h 9.2 mph /  14.8 km/h 48 % 0.00 in /  0 mm
01:15 61.7 °F /  16.5 °C 42.3 °F /  5.7 °C 29.73 in /  1006.7 hPa WNW 2.6 mph /  4.2 km/h 6.0 mph /  9.7 km/h 49 % 0.00 in /  0 mm
01:20 61.6 °F /  16.4 °C 42.2 °F /  5.7 °C 29.73 in /  1006.7 hPa West 5.7 mph /  9.2 km/h 11.5 mph /  18.5 km/h 49 % 0.00 in /  0 mm
01:25 61.5 °F /  16.4 °C 42.2 °F /  5.7 °C 29.73 in /  1006.7 hPa SW 3.6 mph /  5.8 km/h 7.0 mph /  11.3 km/h 49 % 0.00 in /  0 mm
01:30 61.4 °F /  16.3 °C 42.1 °F /  5.6 °C 29.73 in /  1006.7 hPa West 6.5 mph /  10.5 km/h 11.5 mph /  18.5 km/h 49 % 0.00 in /  0 mm
01:35 61.3 °F /  16.3 °C 42.0 °F /  5.6 °C 29.73 in /  1006.7 hPa West 4.2 mph /  6.8 km/h 10.4 mph /  16.7 km/h 49 % 0.00 in /  0 mm
01:37 61.3 °F /  16.3 °C 42.0 °F /  5.6 °C 29.73 in /  1006.7 hPa NNW 2.7 mph /  4.3 km/h 12.7 mph /  20.4 km/h 49 % 0.00 in /  0 mm
01:40 61.3 °F /  16.3 °C 42.0 °F /  5.6 °C 29.73 in /  1006.7 hPa WNW 0.8 mph /  1.3 km/h 6.0 mph /  9.7 km/h 49 % 0.00 in /  0 mm
01:45 61.2 °F /  16.2 °C 41.9 °F /  5.5 °C 29.73 in /  1006.7 hPa West 5.8 mph /  9.3 km/h 10.4 mph /  16.7 km/h 49 % 0.00 in /  0 mm
01:50 61.2 °F /  16.2 °C 41.9 °F /  5.5 °C 29.73 in /  1006.7 hPa WSW 5.5 mph /  8.9 km/h 9.2 mph /  14.8 km/h 49 % 0.00 in /  0 mm
01:55 61.1 °F /  16.2 °C 41.8 °F /  5.4 °C 29.73 in /  1006.7 hPa WNW 5.0 mph /  8 km/h 7.0 mph /  11.3 km/h 49 % 0.00 in /  0 mm
02:01 61.1 °F /  16.2 °C 42.3 °F /  5.7 °C 29.73 in /  1006.7 hPa WNW 4.3 mph /  6.9 km/h 8.0 mph /  12.9 km/h 50 % 0.00 in /  0 mm
02:06 61.0 °F /  16.1 °C 42.7 °F /  5.9 °C 29.73 in /  1006.7 hPa West 3.0 mph /  4.8 km/h 8.0 mph /  12.9 km/h 51 % 0.00 in /  0 mm
02:11 61.0 °F /  16.1 °C 42.7 °F /  5.9 °C 29.73 in /  1006.7 hPa WSW 2.0 mph /  3.2 km/h 7.0 mph /  11.3 km/h 51 % 0.00 in /  0 mm
02:16 60.9 °F /  16.1 °C 42.6 °F /  5.9 °C 29.73 in /  1006.7 hPa West 2.0 mph /  3.2 km/h 7.0 mph /  11.3 km/h 51 % 0.00 in /  0 mm
02:21 60.8 °F /  16 °C 43.1 °F /  6.2 °C 29.73 in /  1006.7 hPa WSW 2.8 mph /  4.5 km/h 8.1 mph /  13 km/h 52 % 0.00 in /  0 mm
02:26 60.7 °F /  15.9 °C 43.5 °F /  6.4 °C 29.73 in /  1006.7 hPa West 5.9 mph /  9.5 km/h 5.9 mph /  9.5 km/h 53 % 0.00 in /  0 mm
02:31 60.5 °F /  15.8 °C 43.8 °F /  6.6 °C 29.73 in /  1006.7 hPa West 1.0 mph /  1.6 km/h 7.0 mph /  11.3 km/h 54 % 0.00 in /  0 mm
02:36 60.4 °F /  15.8 °C 43.2 °F /  6.2 °C 29.73 in /  1006.7 hPa West 5.0 mph /  8 km/h 12.0 mph /  19.3 km/h 53 % 0.00 in /  0 mm
02:41 60.3 °F /  15.7 °C 43.6 °F /  6.4 °C 29.73 in /  1006.7 hPa WSW 5.0 mph /  8 km/h 13.0 mph /  20.9 km/h 54 % 0.00 in /  0 mm
02:46 60.2 °F /  15.7 °C 44.0 °F /  6.7 °C 29.73 in /  1006.7 hPa WSW 4.3 mph /  6.9 km/h 11.5 mph /  18.5 km/h 55 % 0.00 in /  0 mm
02:51 60.1 °F /  15.6 °C 43.4 °F /  6.3 °C 29.72 in /  1006.3 hPa West 3.9 mph /  6.3 km/h 9.2 mph /  14.8 km/h 54 % 0.00 in /  0 mm
02:55 60.0 °F /  15.6 °C 42.8 °F /  6 °C 29.73 in /  1006.7 hPa WSW 3.0 mph /  4.8 km/h 5.0 mph /  8 km/h 53 % 0.00 in /  0 mm
02:59 60.0 °F /  15.6 °C 42.8 °F /  6 °C 29.73 in /  1006.7 hPa WSW 4.9 mph /  7.9 km/h 8.1 mph /  13 km/h 53 % 0.00 in /  0 mm
03:00 60.0 °F /  15.6 °C 42.8 °F /  6 °C 29.73 in /  1006.7 hPa WSW 4.0 mph /  6.4 km/h 8.1 mph /  13 km/h 53 % 0.00 in /  0 mm
03:05 60.0 °F /  15.6 °C 43.3 °F /  6.3 °C 29.73 in /  1006.7 hPa SW 1.8 mph /  2.9 km/h 5.0 mph /  8 km/h 54 % 0.00 in /  0 mm
03:10 59.9 °F /  15.5 °C 43.2 °F /  6.2 °C 29.73 in /  1006.7 hPa WSW 3.5 mph /  5.6 km/h 6.9 mph /  11.1 km/h 54 % 0.00 in /  0 mm
03:15 59.8 °F /  15.4 °C 43.1 °F /  6.2 °C 29.73 in /  1006.7 hPa WNW 3.9 mph /  6.3 km/h 5.8 mph /  9.3 km/h 54 % 0.00 in /  0 mm
03:20 59.8 °F /  15.4 °C 43.6 °F /  6.4 °C 29.73 in /  1006.7 hPa WSW 3.7 mph /  6 km/h 5.8 mph /  9.3 km/h 55 % 0.00 in /  0 mm
03:25 59.7 °F /  15.4 °C 43.5 °F /  6.4 °C 29.73 in /  1006.7 hPa WSW 1.3 mph /  2.1 km/h 3.5 mph /  5.6 km/h 55 % 0.00 in /  0 mm
03:30 59.6 °F /  15.3 °C 43.9 °F /  6.6 °C 29.73 in /  1006.7 hPa WSW 3.7 mph /  6 km/h 8.0 mph /  12.9 km/h 56 % 0.00 in /  0 mm
03:35 59.5 °F /  15.3 °C 43.8 °F /  6.6 °C 29.74 in /  1007 hPa SW 5.3 mph /  8.5 km/h 11.5 mph /  18.5 km/h 56 % 0.00 in /  0 mm
03:40 59.4 °F /  15.2 °C 43.7 °F /  6.5 °C 29.74 in /  1007 hPa West 3.3 mph /  5.3 km/h 10.4 mph /  16.7 km/h 56 % 0.00 in /  0 mm
03:45 59.4 °F /  15.2 °C 43.7 °F /  6.5 °C 29.74 in /  1007 hPa SW 5.0 mph /  8 km/h 6.9 mph /  11.1 km/h 56 % 0.00 in /  0 mm
03:50 59.4 °F /  15.2 °C 44.2 °F /  6.8 °C 29.74 in /  1007 hPa WSW 4.1 mph /  6.6 km/h 4.1 mph /  6.6 km/h 57 % 0.00 in /  0 mm
03:55 59.3 °F /  15.2 °C 43.6 °F /  6.4 °C 29.75 in /  1007.3 hPa West 3.6 mph /  5.8 km/h 10.4 mph /  16.7 km/h 56 % 0.00 in /  0 mm
04:00 59.3 °F /  15.2 °C 43.1 °F /  6.2 °C 29.75 in /  1007.3 hPa West 5.1 mph /  8.2 km/h 9.2 mph /  14.8 km/h 55 % 0.00 in /  0 mm
04:05 59.3 °F /  15.2 °C 43.1 °F /  6.2 °C 29.74 in /  1007 hPa SW 2.8 mph /  4.5 km/h 4.6 mph /  7.4 km/h 55 % 0.00 in /  0 mm
04:11 59.3 °F /  15.2 °C 43.1 °F /  6.2 °C 29.75 in /  1007.3 hPa West 3.8 mph /  6.1 km/h 6.9 mph /  11.1 km/h 55 % 0.00 in /  0 mm
04:16 59.4 °F /  15.2 °C 43.2 °F /  6.2 °C 29.75 in /  1007.3 hPa SW 2.2 mph /  3.5 km/h 6.0 mph /  9.7 km/h 55 % 0.00 in /  0 mm
04:21 59.5 °F /  15.3 °C 43.3 °F /  6.3 °C 29.75 in /  1007.3 hPa West 1.0 mph /  1.6 km/h 9.0 mph /  14.5 km/h 55 % 0.00 in /  0 mm
04:26 59.5 °F /  15.3 °C 43.3 °F /  6.3 °C 29.75 in /  1007.3 hPa West 2.0 mph /  3.2 km/h 12.0 mph /  19.3 km/h 55 % 0.00 in /  0 mm
04:31 59.6 °F /  15.3 °C 43.4 °F /  6.3 °C 29.75 in /  1007.3 hPa West 5.0 mph /  8 km/h 12.0 mph /  19.3 km/h 55 % 0.00 in /  0 mm
04:36 59.6 °F /  15.3 °C 42.9 °F /  6.1 °C 29.75 in /  1007.3 hPa West 3.0 mph /  4.8 km/h 12.0 mph /  19.3 km/h 54 % 0.00 in /  0 mm
04:41 59.6 °F /  15.3 °C 42.9 °F /  6.1 °C 29.75 in /  1007.3 hPa West 3.0 mph /  4.8 km/h 12.0 mph /  19.3 km/h 54 % 0.00 in /  0 mm
04:46 59.7 °F /  15.4 °C 43.0 °F /  6.1 °C 29.75 in /  1007.3 hPa West 6.0 mph /  9.7 km/h 12.0 mph /  19.3 km/h 54 % 0.00 in /  0 mm
04:51 59.7 °F /  15.4 °C 43.0 °F /  6.1 °C 29.75 in /  1007.3 hPa West 6.0 mph /  9.7 km/h 13.0 mph /  20.9 km/h 54 % 0.00 in /  0 mm
04:56 59.7 °F /  15.4 °C 43.0 °F /  6.1 °C 29.75 in /  1007.3 hPa SSW 5.9 mph /  9.5 km/h 9.2 mph /  14.8 km/h 54 % 0.00 in /  0 mm
05:01 59.7 °F /  15.4 °C 42.5 °F /  5.8 °C 29.75 in /  1007.3 hPa WNW 6.3 mph /  10.1 km/h 8.1 mph /  13 km/h 53 % 0.00 in /  0 mm
05:06 59.7 °F /  15.4 °C 42.0 °F /  5.6 °C 29.76 in /  1007.7 hPa West 7.0 mph /  11.3 km/h 20.0 mph /  32.2 km/h 52 % 0.00 in /  0 mm
05:11 59.7 °F /  15.4 °C 42.0 °F /  5.6 °C 29.76 in /  1007.7 hPa WSW 5.8 mph /  9.3 km/h 9.0 mph /  14.5 km/h 52 % 0.00 in /  0 mm
05:16 59.7 °F /  15.4 °C 42.0 °F /  5.6 °C 29.76 in /  1007.7 hPa WSW 6.7 mph /  10.8 km/h 8.1 mph /  13 km/h 52 % 0.00 in /  0 mm
05:21 59.6 °F /  15.3 °C 42.5 °F /  5.8 °C 29.76 in /  1007.7 hPa West 5.0 mph /  8 km/h 20.0 mph /  32.2 km/h 53 % 0.00 in /  0 mm
05:26 59.6 °F /  15.3 °C 42.4 °F /  5.8 °C 29.76 in /  1007.7 hPa West 5.0 mph /  8 km/h 12.0 mph /  19.3 km/h 53 % 0.00 in /  0 mm
05:31 59.5 °F /  15.3 °C 42.3 °F /  5.7 °C 29.77 in /  1008 hPa West 3.0 mph /  4.8 km/h 8.0 mph /  12.9 km/h 53 % 0.00 in /  0 mm
05:36 59.4 °F /  15.2 °C 42.7 °F /  5.9 °C 29.77 in /  1008 hPa West 2.0 mph /  3.2 km/h 8.0 mph /  12.9 km/h 54 % 0.00 in /  0 mm
05:41 59.3 °F /  15.2 °C 42.6 °F /  5.9 °C 29.77 in /  1008 hPa West 2.0 mph /  3.2 km/h 8.0 mph /  12.9 km/h 54 % 0.00 in /  0 mm
05:46 59.1 °F /  15.1 °C 42.5 °F /  5.8 °C 29.77 in /  1008 hPa WSW 6.0 mph /  9.7 km/h 12.0 mph /  19.3 km/h 54 % 0.00 in /  0 mm
05:51 58.9 °F /  14.9 °C 42.3 °F /  5.7 °C 29.77 in /  1008 hPa West 8.0 mph /  12.9 km/h 14.0 mph /  22.5 km/h 54 % 0.00 in /  0 mm
05:56 58.8 °F /  14.9 °C 42.2 °F /  5.7 °C 29.77 in /  1008 hPa West 6.0 mph /  9.7 km/h 14.0 mph /  22.5 km/h 54 % 0.00 in /  0 mm
06:01 58.7 °F /  14.8 °C 41.6 °F /  5.3 °C 29.77 in /  1008 hPa WNW 5.6 mph /  9 km/h 12.7 mph /  20.4 km/h 53 % 0.00 in /  0 mm
06:06 58.7 °F /  14.8 °C 42.1 °F /  5.6 °C 29.77 in /  1008 hPa West 6.6 mph /  10.6 km/h 10.4 mph /  16.7 km/h 54 % 0.00 in /  0 mm
06:11 58.6 °F /  14.8 °C 42.5 °F /  5.8 °C 29.77 in /  1008 hPa WSW 2.5 mph /  4 km/h 3.5 mph /  5.6 km/h 55 % 0.00 in /  0 mm
06:15 58.6 °F /  14.8 °C 42.5 °F /  5.8 °C 29.78 in /  1008.4 hPa West 1.9 mph /  3.1 km/h 8.1 mph /  13 km/h 55 % 0.00 in /  0 mm
06:20 58.5 °F /  14.7 °C 42.4 °F /  5.8 °C 29.78 in /  1008.4 hPa West 3.5 mph /  5.6 km/h 11.5 mph /  18.5 km/h 55 % 0.00 in /  0 mm
06:25 58.5 °F /  14.7 °C 42.4 °F /  5.8 °C 29.78 in /  1008.4 hPa West 5.9 mph /  9.5 km/h 11.5 mph /  18.5 km/h 55 % 0.00 in /  0 mm
06:30 58.5 °F /  14.7 °C 42.4 °F /  5.8 °C 29.78 in /  1008.4 hPa West 3.1 mph /  5 km/h 8.1 mph /  13 km/h 55 % 0.00 in /  0 mm
06:36 58.6 °F /  14.8 °C 42.9 °F /  6.1 °C 29.78 in /  1008.4 hPa West 5.0 mph /  8 km/h 12.0 mph /  19.3 km/h 56 % 0.00 in /  0 mm
06:41 58.7 °F /  14.8 °C 43.0 °F /  6.1 °C 29.79 in /  1008.7 hPa West 2.0 mph /  3.2 km/h 6.0 mph /  9.7 km/h 56 % 0.00 in /  0 mm
06:46 58.7 °F /  14.8 °C 43.5 °F /  6.4 °C 29.79 in /  1008.7 hPa West 1.0 mph /  1.6 km/h 6.0 mph /  9.7 km/h 57 % 0.00 in /  0 mm
06:51 58.9 °F /  14.9 °C 43.7 °F /  6.5 °C 29.79 in /  1008.7 hPa West 2.0 mph /  3.2 km/h 7.0 mph /  11.3 km/h 57 % 0.00 in /  0 mm
06:56 59.0 °F /  15 °C 43.8 °F /  6.6 °C 29.80 in /  1009 hPa WSW 2.7 mph /  4.3 km/h 7.0 mph /  11.3 km/h 57 % 0.00 in /  0 mm
07:01 59.2 °F /  15.1 °C 44.4 °F /  6.9 °C 29.79 in /  1008.7 hPa WSW 3.3 mph /  5.3 km/h 7.0 mph /  11.3 km/h 58 % 0.00 in /  0 mm
07:06 59.4 °F /  15.2 °C 45.0 °F /  7.2 °C 29.80 in /  1009 hPa WSW 1.0 mph /  1.6 km/h 7.0 mph /  11.3 km/h 59 % 0.00 in /  0 mm
07:11 59.6 °F /  15.3 °C 44.8 °F /  7.1 °C 29.80 in /  1009 hPa West 5.0 mph /  8 km/h 9.0 mph /  14.5 km/h 58 % 0.00 in /  0 mm
07:16 59.8 °F /  15.4 °C 44.5 °F /  6.9 °C 29.80 in /  1009 hPa WNW 3.0 mph /  4.8 km/h 9.0 mph /  14.5 km/h 57 % 0.00 in /  0 mm
07:21 60.0 °F /  15.6 °C 44.3 °F /  6.8 °C 29.80 in /  1009 hPa West 2.0 mph /  3.2 km/h 8.0 mph /  12.9 km/h 56 % 0.00 in /  0 mm
07:26 60.2 °F /  15.7 °C 44.4 °F /  6.9 °C 29.80 in /  1009 hPa WSW 5.8 mph /  9.3 km/h 10.0 mph /  16.1 km/h 56 % 0.00 in /  0 mm
07:31 60.4 °F /  15.8 °C 44.2 °F /  6.8 °C 29.80 in /  1009 hPa WNW 5.0 mph /  8 km/h 12.0 mph /  19.3 km/h 55 % 0.00 in /  0 mm
07:36 60.5 °F /  15.8 °C 44.2 °F /  6.8 °C 29.79 in /  1008.7 hPa WNW 6.0 mph /  9.7 km/h 14.0 mph /  22.5 km/h 55 % 0.00 in /  0 mm
07:41 60.5 °F /  15.8 °C 44.2 °F /  6.8 °C 29.79 in /  1008.7 hPa WNW 5.0 mph /  8 km/h 10.0 mph /  16.1 km/h 55 % 0.00 in /  0 mm
07:46 60.5 °F /  15.8 °C 44.2 °F /  6.8 °C 29.79 in /  1008.7 hPa NW 8.0 mph /  12.9 km/h 14.0 mph /  22.5 km/h 55 % 0.00 in /  0 mm
07:51 60.5 °F /  15.8 °C 44.2 °F /  6.8 °C 29.79 in /  1008.7 hPa WNW 8.0 mph /  12.9 km/h 17.0 mph /  27.4 km/h 55 % 0.00 in /  0 mm
07:56 60.5 °F /  15.8 °C 44.2 °F /  6.8 °C 29.80 in /  1009 hPa NW 4.8 mph /  7.7 km/h 10.4 mph /  16.7 km/h 55 % 0.00 in /  0 mm
08:00 60.5 °F /  15.8 °C 44.7 °F /  7.1 °C 29.80 in /  1009 hPa NW 4.3 mph /  6.9 km/h 4.6 mph /  7.4 km/h 56 % 0.00 in /  0 mm
08:06 60.6 °F /  15.9 °C 44.3 °F /  6.8 °C 29.80 in /  1009 hPa West 5.0 mph /  8 km/h 12.0 mph /  19.3 km/h 55 % 0.00 in /  0 mm
08:11 60.7 °F /  15.9 °C 44.9 °F /  7.2 °C 29.80 in /  1009 hPa West 5.0 mph /  8 km/h 12.0 mph /  19.3 km/h 56 % 0.00 in /  0 mm
08:16 60.8 °F /  16 °C 45.0 °F /  7.2 °C 29.81 in /  1009.4 hPa WSW 2.0 mph /  3.2 km/h 9.0 mph /  14.5 km/h 56 % 0.00 in /  0 mm
08:21 60.9 °F /  16.1 °C 44.6 °F /  7 °C 29.81 in /  1009.4 hPa WSW 7.0 mph /  11.3 km/h 13.0 mph /  20.9 km/h 55 % 0.00 in /  0 mm
08:26 61.1 °F /  16.2 °C 45.3 °F /  7.4 °C 29.80 in /  1009 hPa West 1.0 mph /  1.6 km/h 9.0 mph /  14.5 km/h 56 % 0.00 in /  0 mm
08:31 61.2 °F /  16.2 °C 44.9 °F /  7.2 °C 29.81 in /  1009.4 hPa WNW 3.0 mph /  4.8 km/h 9.0 mph /  14.5 km/h 55 % 0.00 in /  0 mm
08:36 61.3 °F /  16.3 °C 44.5 °F /  6.9 °C 29.81 in /  1009.4 hPa WNW 4.5 mph /  7.2 km/h 13.8 mph /  22.2 km/h 54 % 0.00 in /  0 mm
08:40 61.4 °F /  16.3 °C 44.6 °F /  7 °C 29.81 in /  1009.4 hPa West 4.7 mph /  7.6 km/h 9.2 mph /  14.8 km/h 54 % 0.00 in /  0 mm
08:46 61.7 °F /  16.5 °C 45.8 °F /  7.7 °C 29.81 in /  1009.4 hPa West 1.0 mph /  1.6 km/h 9.0 mph /  14.5 km/h 56 % 0.00 in /  0 mm
08:51 62.0 °F /  16.7 °C 45.6 °F /  7.6 °C 29.81 in /  1009.4 hPa WNW 3.0 mph /  4.8 km/h 3.5 mph /  5.6 km/h 55 % 0.00 in /  0 mm
08:56 62.3 °F /  16.8 °C 45.9 °F /  7.7 °C 29.81 in /  1009.4 hPa West 5.0 mph /  8 km/h 10.0 mph /  16.1 km/h 55 % 0.00 in /  0 mm
09:01 62.6 °F /  17 °C 46.2 °F /  7.9 °C 29.82 in /  1009.7 hPa West 3.8 mph /  6.1 km/h 8.1 mph /  13 km/h 55 % 0.00 in /  0 mm
09:06 62.8 °F /  17.1 °C 45.4 °F /  7.4 °C 29.82 in /  1009.7 hPa NW 5.0 mph /  8 km/h 10.0 mph /  16.1 km/h 53 % 0.00 in /  0 mm
09:07 62.9 °F /  17.2 °C 45.0 °F /  7.2 °C 29.82 in /  1009.7 hPa WSW 7.2 mph /  11.6 km/h 11.5 mph /  18.5 km/h 52 % 0.00 in /  0 mm
09:12 63.0 °F /  17.2 °C 45.1 °F /  7.3 °C 29.82 in /  1009.7 hPa WNW 8.6 mph /  13.8 km/h 15.0 mph /  24.1 km/h 52 % 0.00 in /  0 mm
09:17 63.2 °F /  17.3 °C 44.2 °F /  6.8 °C 29.82 in /  1009.7 hPa WSW 7.9 mph /  12.7 km/h 11.5 mph /  18.5 km/h 50 % 0.00 in /  0 mm
09:22 63.3 °F /  17.4 °C 43.8 °F /  6.6 °C 29.82 in /  1009.7 hPa West 6.5 mph /  10.5 km/h 11.5 mph /  18.5 km/h 49 % 0.00 in /  0 mm
09:27 63.5 °F /  17.5 °C 43.4 °F /  6.3 °C 29.83 in /  1010 hPa WSW 4.3 mph /  6.9 km/h 11.5 mph /  18.5 km/h 48 % 0.00 in /  0 mm
09:32 63.7 °F /  17.6 °C 43.6 °F /  6.4 °C 29.83 in /  1010 hPa WNW 4.1 mph /  6.6 km/h 11.5 mph /  18.5 km/h 48 % 0.00 in /  0 mm
09:33 63.7 °F /  17.6 °C 43.6 °F /  6.4 °C 29.83 in /  1010 hPa West 6.5 mph /  10.5 km/h 11.5 mph /  18.5 km/h 48 % 0.00 in /  0 mm
09:38 63.9 °F /  17.7 °C 44.4 °F /  6.9 °C 29.83 in /  1010 hPa NNW 3.0 mph /  4.8 km/h 6.9 mph /  11.1 km/h 49 % 0.00 in /  0 mm
09:43 64.1 °F /  17.8 °C 44.5 °F /  6.9 °C 29.83 in /  1010 hPa WNW 8.0 mph /  12.9 km/h 10.4 mph /  16.7 km/h 49 % 0.00 in /  0 mm
09:48 64.5 °F /  18.1 °C 45.4 °F /  7.4 °C 29.83 in /  1010 hPa North 4.0 mph /  6.4 km/h 8.1 mph /  13 km/h 50 % 0.00 in /  0 mm
09:53 64.8 °F /  18.2 °C 44.1 °F /  6.7 °C 29.83 in /  1010 hPa West 7.2 mph /  11.6 km/h 10.4 mph /  16.7 km/h 47 % 0.00 in /  0 mm
09:58 65.0 °F /  18.3 °C 44.8 °F /  7.1 °C 29.83 in /  1010 hPa WNW 5.1 mph /  8.2 km/h 9.0 mph /  14.5 km/h 48 % 0.00 in /  0 mm
10:03 65.4 °F /  18.6 °C 47.8 °F /  8.8 °C 29.84 in /  1010.4 hPa North 4.2 mph /  6.8 km/h 6.0 mph /  9.7 km/h 53 % 0.00 in /  0 mm
10:08 65.7 °F /  18.7 °C 46.5 °F /  8.1 °C 29.83 in /  1010 hPa WNW 3.0 mph /  4.8 km/h 7.0 mph /  11.3 km/h 50 % 0.00 in /  0 mm
10:13 66.1 °F /  18.9 °C 46.9 °F /  8.3 °C 29.83 in /  1010 hPa NNE 3.3 mph /  5.3 km/h 8.0 mph /  12.9 km/h 50 % 0.00 in /  0 mm
10:18 66.3 °F /  19.1 °C 46.6 °F /  8.1 °C 29.83 in /  1010 hPa WSW 1.0 mph /  1.6 km/h 3.5 mph /  5.6 km/h 49 % 0.00 in /  0 mm
10:23 66.6 °F /  19.2 °C 45.7 °F /  7.6 °C 29.83 in /  1010 hPa NW 4.5 mph /  7.2 km/h 9.2 mph /  14.8 km/h 47 % 0.00 in /  0 mm
10:28 66.3 °F /  19.1 °C 44.3 °F /  6.8 °C 29.84 in /  1010.4 hPa WNW 2.7 mph /  4.3 km/h 4.6 mph /  7.4 km/h 45 % 0.00 in /  0 mm
10:33 66.0 °F /  18.9 °C 44.6 °F /  7 °C 29.84 in /  1010.4 hPa WNW 3.7 mph /  6 km/h 9.2 mph /  14.8 km/h 46 % 0.00 in /  0 mm
10:38 65.4 °F /  18.6 °C 42.9 °F /  6.1 °C 29.84 in /  1010.4 hPa WNW 7.6 mph /  12.2 km/h 15.0 mph /  24.1 km/h 44 % 0.00 in /  0 mm
10:43 65.3 °F /  18.5 °C 42.8 °F /  6 °C 29.84 in /  1010.4 hPa West 6.1 mph /  9.8 km/h 13.8 mph /  22.2 km/h 44 % 0.00 in /  0 mm
10:48 65.4 °F /  18.6 °C 42.9 °F /  6.1 °C 29.84 in /  1010.4 hPa WNW 6.4 mph /  10.3 km/h 12.7 mph /  20.4 km/h 44 % 0.00 in /  0 mm
10:53 65.6 °F /  18.7 °C 45.4 °F /  7.4 °C 29.84 in /  1010.4 hPa NW 3.6 mph /  5.8 km/h 7.0 mph /  11.3 km/h 48 % 0.00 in /  0 mm
10:58 66.0 °F /  18.9 °C 44.6 °F /  7 °C 29.84 in /  1010.4 hPa WNW 3.8 mph /  6.1 km/h 6.9 mph /  11.1 km/h 46 % 0.00 in /  0 mm
11:03 66.1 °F /  18.9 °C 43.5 °F /  6.4 °C 29.84 in /  1010.4 hPa West 4.2 mph /  6.8 km/h 7.0 mph /  11.3 km/h 44 % 0.00 in /  0 mm
11:08 66.2 °F /  19 °C 43.6 °F /  6.4 °C 29.84 in /  1010.4 hPa NW 7.3 mph /  11.7 km/h 11.5 mph /  18.5 km/h 44 % 0.00 in /  0 mm
11:13 66.3 °F /  19.1 °C 42.5 °F /  5.8 °C 29.84 in /  1010.4 hPa WNW 7.8 mph /  12.6 km/h 15.0 mph /  24.1 km/h 42 % 0.00 in /  0 mm
11:18 66.2 °F /  19 °C 41.8 °F /  5.4 °C 29.84 in /  1010.4 hPa WNW 6.7 mph /  10.8 km/h 11.5 mph /  18.5 km/h 41 % 0.00 in /  0 mm
11:23 66.3 °F /  19.1 °C 42.5 °F /  5.8 °C 29.84 in /  1010.4 hPa NW 8.0 mph /  12.9 km/h 15.0 mph /  24.1 km/h 42 % 0.00 in /  0 mm
11:28 66.4 °F /  19.1 °C 42.0 °F /  5.6 °C 29.84 in /  1010.4 hPa West 5.8 mph /  9.3 km/h 9.0 mph /  14.5 km/h 41 % 0.00 in /  0 mm
11:33 66.4 °F /  19.1 °C 42.0 °F /  5.6 °C 29.84 in /  1010.4 hPa West 6.7 mph /  10.8 km/h 10.0 mph /  16.1 km/h 41 % 0.00 in /  0 mm
11:38 66.5 °F /  19.2 °C 42.1 °F /  5.6 °C 29.84 in /  1010.4 hPa WNW 5.2 mph /  8.4 km/h 10.4 mph /  16.7 km/h 41 % 0.00 in /  0 mm
11:43 66.4 °F /  19.1 °C 42.6 °F /  5.9 °C 29.84 in /  1010.4 hPa WSW 4.0 mph /  6.4 km/h 8.1 mph /  13 km/h 42 % 0.00 in /  0 mm
11:48 66.1 °F /  18.9 °C 41.7 °F /  5.4 °C 29.84 in /  1010.4 hPa NW 6.6 mph /  10.6 km/h 12.0 mph /  19.3 km/h 41 % 0.00 in /  0 mm
11:53 65.7 °F /  18.7 °C 41.3 °F /  5.2 °C 29.84 in /  1010.4 hPa WNW 4.6 mph /  7.4 km/h 10.4 mph /  16.7 km/h 41 % 0.00 in /  0 mm
11:58 65.2 °F /  18.4 °C 40.9 °F /  4.9 °C 29.84 in /  1010.4 hPa WNW 5.1 mph /  8.2 km/h 11.5 mph /  18.5 km/h 41 % 0.00 in /  0 mm
12:03 65.0 °F /  18.3 °C 41.3 °F /  5.2 °C 29.84 in /  1010.4 hPa NW 6.1 mph /  9.8 km/h 10.4 mph /  16.7 km/h 42 % 0.00 in /  0 mm
12:09 65.7 °F /  18.7 °C 42.6 °F /  5.9 °C 29.84 in /  1010.4 hPa WNW 5.6 mph /  9 km/h 11.5 mph /  18.5 km/h 43 % 0.00 in /  0 mm
12:14 66.2 °F /  19 °C 41.8 °F /  5.4 °C 29.84 in /  1010.4 hPa SW 4.0 mph /  6.4 km/h 8.1 mph /  13 km/h 41 % 0.00 in /  0 mm
12:19 66.5 °F /  19.2 °C 42.7 °F /  5.9 °C 29.84 in /  1010.4 hPa SW 6.6 mph /  10.6 km/h 13.0 mph /  20.9 km/h 42 % 0.00 in /  0 mm
12:24 66.9 °F /  19.4 °C 43.0 °F /  6.1 °C 29.84 in /  1010.4 hPa WSW 7.5 mph /  12.1 km/h 13.8 mph /  22.2 km/h 42 % 0.00 in /  0 mm
12:29 67.4 °F /  19.7 °C 43.5 °F /  6.4 °C 29.84 in /  1010.4 hPa WNW 5.6 mph /  9 km/h 11.0 mph /  17.7 km/h 42 % 0.00 in /  0 mm
12:34 67.3 °F /  19.6 °C 40.8 °F /  4.9 °C 29.85 in /  1010.7 hPa WSW 4.9 mph /  7.9 km/h 12.7 mph /  20.4 km/h 38 % 0.00 in /  0 mm
12:39 66.9 °F /  19.4 °C 41.1 °F /  5.1 °C 29.85 in /  1010.7 hPa West 5.9 mph /  9.5 km/h 7.0 mph /  11.3 km/h 39 % 0.00 in /  0 mm
12:44 66.6 °F /  19.2 °C 40.9 °F /  4.9 °C 29.85 in /  1010.7 hPa West 5.6 mph /  9 km/h 11.5 mph /  18.5 km/h 39 % 0.00 in /  0 mm
12:49 66.3 °F /  19.1 °C 41.2 °F /  5.1 °C 29.86 in /  1011.1 hPa NW 5.3 mph /  8.5 km/h 11.5 mph /  18.5 km/h 40 % 0.00 in /  0 mm
12:54 66.2 °F /  19 °C 43.0 °F /  6.1 °C 29.86 in /  1011.1 hPa NW 6.1 mph /  9.8 km/h 10.4 mph /  16.7 km/h 43 % 0.00 in /  0 mm
12:59 66.2 °F /  19 °C 44.2 °F /  6.8 °C 29.87 in /  1011.4 hPa West 6.4 mph /  10.3 km/h 11.5 mph /  18.5 km/h 45 % 0.00 in /  0 mm
13:04 66.1 °F /  18.9 °C 42.9 °F /  6.1 °C 29.86 in /  1011.1 hPa West 5.8 mph /  9.3 km/h 12.0 mph /  19.3 km/h 43 % 0.00 in /  0 mm
13:09 65.9 °F /  18.8 °C 42.1 °F /  5.6 °C 29.87 in /  1011.4 hPa WSW 8.0 mph /  12.9 km/h 12.0 mph /  19.3 km/h 42 % 0.00 in /  0 mm
13:14 65.5 °F /  18.6 °C 41.2 °F /  5.1 °C 29.87 in /  1011.4 hPa NW 5.6 mph /  9 km/h 17.3 mph /  27.8 km/h 41 % 0.00 in /  0 mm
13:20 65.3 °F /  18.5 °C 42.2 °F /  5.7 °C 29.87 in /  1011.4 hPa WSW 6.6 mph /  10.6 km/h 10.4 mph /  16.7 km/h 43 % 0.00 in /  0 mm
13:25 65.2 °F /  18.4 °C 40.9 °F /  4.9 °C 29.87 in /  1011.4 hPa NW 5.8 mph /  9.3 km/h 13.8 mph /  22.2 km/h 41 % 0.00 in /  0 mm
13:30 65.0 °F /  18.3 °C 41.3 °F /  5.2 °C 29.87 in /  1011.4 hPa WNW 6.9 mph /  11.1 km/h 11.5 mph /  18.5 km/h 42 % 0.00 in /  0 mm
13:35 64.9 °F /  18.3 °C 43.6 °F /  6.4 °C 29.87 in /  1011.4 hPa WSW 2.8 mph /  4.5 km/h 11.5 mph /  18.5 km/h 46 % 0.00 in /  0 mm
13:40 65.1 °F /  18.4 °C 42.6 °F /  5.9 °C 29.86 in /  1011.1 hPa West 4.7 mph /  7.6 km/h 10.4 mph /  16.7 km/h 44 % 0.00 in /  0 mm
13:45 65.6 °F /  18.7 °C 45.4 °F /  7.4 °C 29.87 in /  1011.4 hPa WSW 3.1 mph /  5 km/h 10.4 mph /  16.7 km/h 48 % 0.00 in /  0 mm
13:50 66.3 °F /  19.1 °C 41.9 °F /  5.5 °C 29.87 in /  1011.4 hPa WSW 6.8 mph /  10.9 km/h 13.8 mph /  22.2 km/h 41 % 0.00 in /  0 mm
13:55 66.4 °F /  19.1 °C 42.6 °F /  5.9 °C 29.88 in /  1011.7 hPa WNW 4.5 mph /  7.2 km/h 13.8 mph /  22.2 km/h 42 % 0.00 in /  0 mm
14:00 66.8 °F /  19.3 °C 43.0 °F /  6.1 °C 29.88 in /  1011.7 hPa WNW 2.8 mph /  4.5 km/h 8.1 mph /  13 km/h 42 % 0.00 in /  0 mm
14:05 67.4 °F /  19.7 °C 43.5 °F /  6.4 °C 29.88 in /  1011.7 hPa SSW 6.0 mph /  9.7 km/h 10.4 mph /  16.7 km/h 42 % 0.00 in /  0 mm
14:10 67.6 °F /  19.8 °C 43.1 °F /  6.2 °C 29.88 in /  1011.7 hPa WNW 5.2 mph /  8.4 km/h 11.5 mph /  18.5 km/h 41 % 0.00 in /  0 mm
14:15 67.7 °F /  19.8 °C 42.5 °F /  5.8 °C 29.88 in /  1011.7 hPa NW 5.8 mph /  9.3 km/h 9.2 mph /  14.8 km/h 40 % 0.00 in /  0 mm
14:20 67.8 °F /  19.9 °C 42.6 °F /  5.9 °C 29.88 in /  1011.7 hPa WNW 7.0 mph /  11.3 km/h 11.5 mph /  18.5 km/h 40 % 0.00 in /  0 mm
14:25 67.7 °F /  19.8 °C 41.8 °F /  5.4 °C 29.88 in /  1011.7 hPa West 6.0 mph /  9.7 km/h 14.0 mph /  22.5 km/h 39 % 0.00 in /  0 mm
14:30 67.9 °F /  19.9 °C 43.3 °F /  6.3 °C 29.88 in /  1011.7 hPa WNW 7.1 mph /  11.4 km/h 11.5 mph /  18.5 km/h 41 % 0.00 in /  0 mm
14:35 68.1 °F /  20.1 °C 42.2 °F /  5.7 °C 29.88 in /  1011.7 hPa NW 5.1 mph /  8.2 km/h 9.2 mph /  14.8 km/h 39 % 0.00 in /  0 mm
14:40 68.2 °F /  20.1 °C 42.9 °F /  6.1 °C 29.88 in /  1011.7 hPa NW 7.2 mph /  11.6 km/h 12.7 mph /  20.4 km/h 40 % 0.00 in /  0 mm
14:45 68.1 °F /  20.1 °C 42.2 °F /  5.7 °C 29.88 in /  1011.7 hPa WSW 7.2 mph /  11.6 km/h 12.7 mph /  20.4 km/h 39 % 0.00 in /  0 mm
14:50 68.1 °F /  20.1 °C 42.9 °F /  6.1 °C 29.89 in /  1012.1 hPa SW 7.2 mph /  11.6 km/h 11.5 mph /  18.5 km/h 40 % 0.00 in /  0 mm
14:55 68.1 °F /  20.1 °C 42.2 °F /  5.7 °C 29.89 in /  1012.1 hPa SW 9.1 mph /  14.6 km/h 21.0 mph /  33.8 km/h 39 % 0.00 in /  0 mm
15:00 67.9 °F /  19.9 °C 42.7 °F /  5.9 °C 29.88 in /  1011.7 hPa NW 9.2 mph /  14.8 km/h 15.0 mph /  24.1 km/h 40 % 0.00 in /  0 mm
15:05 67.9 °F /  19.9 °C 43.3 °F /  6.3 °C 29.88 in /  1011.7 hPa WSW 4.2 mph /  6.8 km/h 10.4 mph /  16.7 km/h 41 % 0.00 in /  0 mm
15:10 68.0 °F /  20 °C 44.0 °F /  6.7 °C 29.88 in /  1011.7 hPa WSW 2.9 mph /  4.7 km/h 9.2 mph /  14.8 km/h 42 % 0.00 in /  0 mm
15:15 68.4 °F /  20.2 °C 43.1 °F /  6.2 °C 29.89 in /  1012.1 hPa West 5.1 mph /  8.2 km/h 10.4 mph /  16.7 km/h 40 % 0.00 in /  0 mm
15:20 68.6 °F /  20.3 °C 43.9 °F /  6.6 °C 29.89 in /  1012.1 hPa WNW 5.3 mph /  8.5 km/h 10.0 mph /  16.1 km/h 41 % 0.00 in /  0 mm
15:25 68.5 °F /  20.3 °C 41.2 °F /  5.1 °C 29.89 in /  1012.1 hPa WNW 5.9 mph /  9.5 km/h 10.4 mph /  16.7 km/h 37 % 0.00 in /  0 mm
15:30 68.1 °F /  20.1 °C 41.5 °F /  5.3 °C 29.89 in /  1012.1 hPa WSW 5.3 mph /  8.5 km/h 10.4 mph /  16.7 km/h 38 % 0.00 in /  0 mm
15:36 67.9 °F /  19.9 °C 42.7 °F /  5.9 °C 29.89 in /  1012.1 hPa WNW 6.0 mph /  9.7 km/h 12.0 mph /  19.3 km/h 40 % 0.00 in /  0 mm
15:41 68.1 °F /  20.1 °C 42.9 °F /  6.1 °C 29.89 in /  1012.1 hPa NW 4.9 mph /  7.9 km/h 11.5 mph /  18.5 km/h 40 % 0.00 in /  0 mm
15:46 68.2 °F /  20.1 °C 42.3 °F /  5.7 °C 29.89 in /  1012.1 hPa West 7.0 mph /  11.3 km/h 16.1 mph /  25.9 km/h 39 % 0.00 in /  0 mm
15:51 68.1 °F /  20.1 °C 42.9 °F /  6.1 °C 29.89 in /  1012.1 hPa NW 6.4 mph /  10.3 km/h 13.0 mph /  20.9 km/h 40 % 0.00 in /  0 mm
15:52 68.1 °F /  20.1 °C 42.2 °F /  5.7 °C 29.89 in /  1012.1 hPa WNW 8.8 mph /  14.2 km/h 12.7 mph /  20.4 km/h 39 % 0.00 in /  0 mm
15:53 68.1 °F /  20.1 °C 42.2 °F /  5.7 °C 29.90 in /  1012.4 hPa WNW 8.0 mph /  12.9 km/h 14.0 mph /  22.5 km/h 39 % 0.00 in /  0 mm
15:58 67.8 °F /  19.9 °C 41.9 °F /  5.5 °C 29.89 in /  1012.1 hPa North 8.8 mph /  14.2 km/h 11.0 mph /  17.7 km/h 39 % 0.00 in /  0 mm
16:03 67.6 °F /  19.8 °C 41.7 °F /  5.4 °C 29.89 in /  1012.1 hPa WNW 7.8 mph /  12.6 km/h 12.0 mph /  19.3 km/h 39 % 0.00 in /  0 mm
16:08 67.6 °F /  19.8 °C 41.7 °F /  5.4 °C 29.90 in /  1012.4 hPa NW 7.4 mph /  11.9 km/h 12.0 mph /  19.3 km/h 39 % 0.00 in /  0 mm
16:13 67.6 °F /  19.8 °C 43.7 °F /  6.5 °C 29.90 in /  1012.4 hPa NW 4.9 mph /  7.9 km/h 11.5 mph /  18.5 km/h 42 % 0.00 in /  0 mm
16:18 67.6 °F /  19.8 °C 41.7 °F /  5.4 °C 29.90 in /  1012.4 hPa West 10.2 mph /  16.4 km/h 16.1 mph /  25.9 km/h 39 % 0.00 in /  0 mm
16:23 67.4 °F /  19.7 °C 43.5 °F /  6.4 °C 29.90 in /  1012.4 hPa NW 2.9 mph /  4.7 km/h 13.8 mph /  22.2 km/h 42 % 0.00 in /  0 mm
16:28 67.1 °F /  19.5 °C 42.6 °F /  5.9 °C 29.90 in /  1012.4 hPa North 4.8 mph /  7.7 km/h 8.1 mph /  13 km/h 41 % 0.00 in /  0 mm
16:33 66.8 °F /  19.3 °C 42.3 °F /  5.7 °C 29.90 in /  1012.4 hPa SSE 1.7 mph /  2.7 km/h 11.0 mph /  17.7 km/h 41 % 0.00 in /  0 mm
16:38 66.7 °F /  19.3 °C 41.6 °F /  5.3 °C 29.90 in /  1012.4 hPa WSW 7.4 mph /  11.9 km/h 11.5 mph /  18.5 km/h 40 % 0.00 in /  0 mm
16:43 66.5 °F /  19.2 °C 41.4 °F /  5.2 °C 29.91 in /  1012.8 hPa WNW 11.1 mph /  17.9 km/h 17.3 mph /  27.8 km/h 40 % 0.00 in /  0 mm
16:48 66.1 °F /  18.9 °C 41.7 °F /  5.4 °C 29.91 in /  1012.8 hPa West 4.3 mph /  6.9 km/h 6.9 mph /  11.1 km/h 41 % 0.00 in /  0 mm
16:53 65.8 °F /  18.8 °C 42.7 °F /  5.9 °C 29.91 in /  1012.8 hPa NW 1.5 mph /  2.4 km/h 5.8 mph /  9.3 km/h 43 % 0.00 in /  0 mm
16:58 65.6 °F /  18.7 °C 41.3 °F /  5.2 °C 29.91 in /  1012.8 hPa WNW 6.7 mph /  10.8 km/h 11.5 mph /  18.5 km/h 41 % 0.00 in /  0 mm
17:03 65.5 °F /  18.6 °C 41.8 °F /  5.4 °C 29.92 in /  1013.1 hPa NW 8.4 mph /  13.5 km/h 12.7 mph /  20.4 km/h 42 % 0.00 in /  0 mm
17:08 65.4 °F /  18.6 °C 44.1 °F /  6.7 °C 29.92 in /  1013.1 hPa NNW 3.3 mph /  5.3 km/h 9.2 mph /  14.8 km/h 46 % 0.00 in /  0 mm
17:13 65.2 °F /  18.4 °C 43.3 °F /  6.3 °C 29.92 in /  1013.1 hPa WNW 4.8 mph /  7.7 km/h 13.8 mph /  22.2 km/h 45 % 0.00 in /  0 mm
17:18 65.0 °F /  18.3 °C 43.1 °F /  6.2 °C 29.92 in /  1013.1 hPa WNW 5.3 mph /  8.5 km/h 15.0 mph /  24.1 km/h 45 % 0.00 in /  0 mm
17:23 64.8 °F /  18.2 °C 42.9 °F /  6.1 °C 29.92 in /  1013.1 hPa NNW 3.4 mph /  5.5 km/h 5.8 mph /  9.3 km/h 45 % 0.00 in /  0 mm
17:28 64.4 °F /  18 °C 43.2 °F /  6.2 °C 29.94 in /  1013.8 hPa West 4.2 mph /  6.8 km/h 13.8 mph /  22.2 km/h 46 % 0.00 in /  0 mm
17:33 64.1 °F /  17.8 °C 42.9 °F /  6.1 °C 29.94 in /  1013.8 hPa North 2.2 mph /  3.5 km/h 5.8 mph /  9.3 km/h 46 % 0.00 in /  0 mm
17:38 63.8 °F /  17.7 °C 42.6 °F /  5.9 °C 29.94 in /  1013.8 hPa WNW 6.6 mph /  10.6 km/h 9.2 mph /  14.8 km/h 46 % 0.00 in /  0 mm
17:43 63.4 °F /  17.4 °C 43.9 °F /  6.6 °C 29.94 in /  1013.8 hPa North 1.9 mph /  3.1 km/h 5.8 mph /  9.3 km/h 49 % 0.00 in /  0 mm
17:48 63.0 °F /  17.2 °C 43.0 °F /  6.1 °C 29.94 in /  1013.8 hPa NNW 3.2 mph /  5.1 km/h 11.5 mph /  18.5 km/h 48 % 0.00 in /  0 mm
17:53 62.7 °F /  17.1 °C 43.3 °F /  6.3 °C 29.95 in /  1014.1 hPa North 1.1 mph /  1.8 km/h 5.0 mph /  8 km/h 49 % 0.00 in /  0 mm
17:58 62.2 °F /  16.8 °C 42.8 °F /  6 °C 29.95 in /  1014.1 hPa NW 2.3 mph /  3.7 km/h 11.5 mph /  18.5 km/h 49 % 0.00 in /  0 mm
18:04 62.0 °F /  16.7 °C 42.6 °F /  5.9 °C 29.95 in /  1014.1 hPa WNW 6.2 mph /  10 km/h 8.1 mph /  13 km/h 49 % 0.00 in /  0 mm
18:09 61.7 °F /  16.5 °C 42.3 °F /  5.7 °C 29.95 in /  1014.1 hPa West 1.6 mph /  2.6 km/h 12.7 mph /  20.4 km/h 49 % 0.00 in /  0 mm
18:10 61.6 °F /  16.4 °C 41.7 °F /  5.4 °C 29.95 in /  1014.1 hPa NNW 3.7 mph /  6 km/h 8.1 mph /  13 km/h 48 % 0.00 in /  0 mm
18:12 61.5 °F /  16.4 °C 41.6 °F /  5.3 °C 29.95 in /  1014.1 hPa NNE 3.3 mph /  5.3 km/h 8.1 mph /  13 km/h 48 % 0.00 in /  0 mm
18:17 61.1 °F /  16.2 °C 42.8 °F /  6 °C 29.95 in /  1014.1 hPa North 1.6 mph /  2.6 km/h 3.5 mph /  5.6 km/h 51 % 0.00 in /  0 mm
18:22 60.7 °F /  15.9 °C 41.4 °F /  5.2 °C 29.95 in /  1014.1 hPa NW 3.7 mph /  6 km/h 9.2 mph /  14.8 km/h 49 % 0.00 in /  0 mm
18:27 60.6 °F /  15.9 °C 41.8 °F /  5.4 °C 29.96 in /  1014.4 hPa WNW 3.9 mph /  6.3 km/h 6.9 mph /  11.1 km/h 50 % 0.00 in /  0 mm
18:32 60.4 °F /  15.8 °C 42.2 °F /  5.7 °C 29.96 in /  1014.4 hPa North 3.0 mph /  4.8 km/h 6.0 mph /  9.7 km/h 51 % 0.00 in /  0 mm
18:37 60.2 °F /  15.7 °C 43.0 °F /  6.1 °C 29.96 in /  1014.4 hPa NNW 2.0 mph /  3.2 km/h 3.5 mph /  5.6 km/h 53 % 0.00 in /  0 mm
18:42 60.1 °F /  15.6 °C 43.4 °F /  6.3 °C 29.96 in /  1014.4 hPa North 0.7 mph /  1.1 km/h 4.0 mph /  6.4 km/h 54 % 0.00 in /  0 mm
18:47 60.0 °F /  15.6 °C 42.8 °F /  6 °C 29.97 in /  1014.8 hPa NW 5.3 mph /  8.5 km/h 9.2 mph /  14.8 km/h 53 % 0.00 in /  0 mm
18:52 59.8 °F /  15.4 °C 43.1 °F /  6.2 °C 29.97 in /  1014.8 hPa NW 4.0 mph /  6.4 km/h 10.4 mph /  16.7 km/h 54 % 0.00 in /  0 mm
18:57 59.8 °F /  15.4 °C 44.5 °F /  6.9 °C 29.97 in /  1014.8 hPa NNW 1.3 mph /  2.1 km/h 3.0 mph /  4.8 km/h 57 % 0.00 in /  0 mm
19:02 59.6 °F /  15.3 °C 43.9 °F /  6.6 °C 29.98 in /  1015.1 hPa WNW 3.4 mph /  5.5 km/h 3.5 mph /  5.6 km/h 56 % 0.00 in /  0 mm
19:07 59.3 °F /  15.2 °C 44.1 °F /  6.7 °C 29.97 in /  1014.8 hPa NW 0.4 mph /  0.6 km/h 3.5 mph /  5.6 km/h 57 % 0.00 in /  0 mm
19:13 59.0 °F /  15 °C 42.4 °F /  5.8 °C 29.98 in /  1015.1 hPa North 0.1 mph /  0.2 km/h 3.5 mph /  5.6 km/h 54 % 0.00 in /  0 mm
19:18 58.5 °F /  14.7 °C 41.9 °F /  5.5 °C 29.98 in /  1015.1 hPa North 2.6 mph /  4.2 km/h 9.2 mph /  14.8 km/h 54 % 0.00 in /  0 mm
19:23 58.2 °F /  14.6 °C 41.6 °F /  5.3 °C 29.98 in /  1015.1 hPa North 4.6 mph /  7.4 km/h 6.9 mph /  11.1 km/h 54 % 0.00 in /  0 mm
19:28 57.8 °F /  14.3 °C 41.7 °F /  5.4 °C 29.98 in /  1015.1 hPa NNE 3.9 mph /  6.3 km/h 8.1 mph /  13 km/h 55 % 0.00 in /  0 mm
19:33 57.4 °F /  14.1 °C 40.4 °F /  4.7 °C 29.98 in /  1015.1 hPa NNE 5.2 mph /  8.4 km/h 9.2 mph /  14.8 km/h 53 % 0.00 in /  0 mm
19:38 57.1 °F /  13.9 °C 39.6 °F /  4.2 °C 30.00 in /  1015.8 hPa North 4.4 mph /  7.1 km/h 11.5 mph /  18.5 km/h 52 % 0.00 in /  0 mm
19:43 56.8 °F /  13.8 °C 40.3 °F /  4.6 °C 30.00 in /  1015.8 hPa NNE 6.1 mph /  9.8 km/h 10.4 mph /  16.7 km/h 54 % 0.00 in /  0 mm
19:48 56.5 °F /  13.6 °C 39.6 °F /  4.2 °C 30.00 in /  1015.8 hPa NNE 6.7 mph /  10.8 km/h 11.5 mph /  18.5 km/h 53 % 0.00 in /  0 mm
19:53 56.4 °F /  13.6 °C 39.5 °F /  4.2 °C 29.99 in /  1015.5 hPa NNW 4.8 mph /  7.7 km/h 6.0 mph /  9.7 km/h 53 % 0.00 in /  0 mm
19:58 56.2 °F /  13.4 °C 39.8 °F /  4.3 °C 30.00 in /  1015.8 hPa NNE 8.7 mph /  14 km/h 11.5 mph /  18.5 km/h 54 % 0.00 in /  0 mm
20:03 56.1 °F /  13.4 °C 39.7 °F /  4.3 °C 30.00 in /  1015.8 hPa North 5.6 mph /  9 km/h 6.9 mph /  11.1 km/h 54 % 0.00 in /  0 mm
20:08 56.0 °F /  13.3 °C 40.5 °F /  4.7 °C 30.00 in /  1015.8 hPa NNE 5.0 mph /  8 km/h 10.4 mph /  16.7 km/h 56 % 0.00 in /  0 mm
20:13 55.9 °F /  13.3 °C 40.4 °F /  4.7 °C 30.01 in /  1016.1 hPa North 4.5 mph /  7.2 km/h 10.4 mph /  16.7 km/h 56 % 0.00 in /  0 mm
20:18 55.7 °F /  13.2 °C 41.6 °F /  5.3 °C 30.01 in /  1016.1 hPa North 7.1 mph /  11.4 km/h 10.4 mph /  16.7 km/h 59 % 0.00 in /  0 mm
20:23 55.4 °F /  13 °C 41.7 °F /  5.4 °C 30.02 in /  1016.5 hPa North 6.9 mph /  11.1 km/h 11.5 mph /  18.5 km/h 60 % 0.00 in /  0 mm
20:28 55.1 °F /  12.8 °C 42.3 °F /  5.7 °C 30.03 in /  1016.8 hPa NNE 7.7 mph /  12.4 km/h 11.5 mph /  18.5 km/h 62 % 0.00 in /  0 mm
20:33 54.8 °F /  12.7 °C 42.0 °F /  5.6 °C 30.04 in /  1017.2 hPa NNE 7.3 mph /  11.7 km/h 11.5 mph /  18.5 km/h 62 % 0.00 in /  0 mm
20:38 54.6 °F /  12.6 °C 41.8 °F /  5.4 °C 30.05 in /  1017.5 hPa NNE 6.0 mph /  9.7 km/h 9.0 mph /  14.5 km/h 62 % 0.00 in /  0 mm
20:43 54.5 °F /  12.5 °C 41.7 °F /  5.4 °C 30.05 in /  1017.5 hPa North 7.8 mph /  12.6 km/h 12.0 mph /  19.3 km/h 62 % 0.00 in /  0 mm
20:48 54.2 °F /  12.3 °C 41.0 °F /  5 °C 30.06 in /  1017.8 hPa NNE 4.2 mph /  6.8 km/h 8.0 mph /  12.9 km/h 61 % 0.00 in /  0 mm
20:54 54.1 °F /  12.3 °C 40.9 °F /  4.9 °C 30.08 in /  1018.5 hPa North 5.3 mph /  8.5 km/h 10.4 mph /  16.7 km/h 61 % 0.00 in /  0 mm
20:59 53.9 °F /  12.2 °C 41.2 °F /  5.1 °C 30.08 in /  1018.5 hPa North 5.3 mph /  8.5 km/h 8.1 mph /  13 km/h 62 % 0.00 in /  0 mm
21:04 53.8 °F /  12.1 °C 40.7 °F /  4.8 °C 30.08 in /  1018.5 hPa North 4.6 mph /  7.4 km/h 9.2 mph /  14.8 km/h 61 % 0.00 in /  0 mm
21:09 53.7 °F /  12.1 °C 40.6 °F /  4.8 °C 30.09 in /  1018.8 hPa NNW 2.0 mph /  3.2 km/h 8.1 mph /  13 km/h 61 % 0.00 in /  0 mm
21:14 53.6 °F /  12 °C 40.5 °F /  4.7 °C 30.09 in /  1018.8 hPa NW 0.7 mph /  1.1 km/h 4.6 mph /  7.4 km/h 61 % 0.00 in /  0 mm
21:19 53.5 °F /  11.9 °C 40.4 °F /  4.7 °C 30.10 in /  1019.2 hPa NW 1.6 mph /  2.6 km/h 3.5 mph /  5.6 km/h 61 % 0.00 in /  0 mm
21:24 53.3 °F /  11.8 °C 40.2 °F /  4.6 °C 30.10 in /  1019.2 hPa NW 1.7 mph /  2.7 km/h 3.5 mph /  5.6 km/h 61 % 0.00 in /  0 mm
21:29 53.3 °F /  11.8 °C 40.2 °F /  4.6 °C 30.11 in /  1019.5 hPa NNE 1.0 mph /  1.6 km/h 3.5 mph /  5.6 km/h 61 % 0.00 in /  0 mm
21:34 53.2 °F /  11.8 °C 39.7 °F /  4.3 °C 30.11 in /  1019.5 hPa North 1.8 mph /  2.9 km/h 6.0 mph /  9.7 km/h 60 % 0.00 in /  0 mm
21:39 53.0 °F /  11.7 °C 40.3 °F /  4.6 °C 30.12 in /  1019.9 hPa North 0.4 mph /  0.6 km/h 3.5 mph /  5.6 km/h 62 % 0.00 in /  0 mm
21:44 53.0 °F /  11.7 °C 40.3 °F /  4.6 °C 30.12 in /  1019.9 hPa NNE 0.2 mph /  0.3 km/h 1.2 mph /  1.9 km/h 62 % 0.00 in /  0 mm
21:49 52.9 °F /  11.6 °C 40.2 °F /  4.6 °C 30.12 in /  1019.9 hPa NW 0.1 mph /  0.2 km/h 1.2 mph /  1.9 km/h 62 % 0.00 in /  0 mm
21:54 52.8 °F /  11.6 °C 40.1 °F /  4.5 °C 30.13 in /  1020.2 hPa NW 0.8 mph /  1.3 km/h 3.5 mph /  5.6 km/h 62 % 0.00 in /  0 mm
21:59 52.8 °F /  11.6 °C 40.1 °F /  4.5 °C 30.13 in /  1020.2 hPa NW 0.1 mph /  0.2 km/h   62 % 0.00 in /  0 mm
22:04 52.7 °F /  11.5 °C 40.5 °F /  4.7 °C 30.13 in /  1020.2 hPa NW 0.3 mph /  0.5 km/h 1.2 mph /  1.9 km/h 63 % 0.00 in /  0 mm
22:09 52.6 °F /  11.4 °C 40.4 °F /  4.7 °C 30.14 in /  1020.5 hPa North 1.2 mph /  1.9 km/h 5.0 mph /  8 km/h 63 % 0.00 in /  0 mm
22:14 52.5 °F /  11.4 °C 40.3 °F /  4.6 °C 30.14 in /  1020.5 hPa NW 1.1 mph /  1.8 km/h 4.6 mph /  7.4 km/h 63 % 0.00 in /  0 mm
22:19 52.3 °F /  11.3 °C 40.5 °F /  4.7 °C 30.14 in /  1020.5 hPa NNW 0.2 mph /  0.3 km/h 3.5 mph /  5.6 km/h 64 % 0.00 in /  0 mm
22:24 52.2 °F /  11.2 °C 40.8 °F /  4.9 °C 30.15 in /  1020.9 hPa NNW 0.1 mph /  0.2 km/h 1.2 mph /  1.9 km/h 65 % 0.00 in /  0 mm
22:29 52.2 °F /  11.2 °C 40.8 °F /  4.9 °C 30.15 in /  1020.9 hPa Calm     65 % 0.00 in /  0 mm
22:34 52.1 °F /  11.2 °C 41.1 °F /  5.1 °C 30.15 in /  1020.9 hPa Calm     66 % 0.00 in /  0 mm
22:39 52.0 °F /  11.1 °C 41.4 °F /  5.2 °C 30.15 in /  1020.9 hPa Calm     67 % 0.00 in /  0 mm
22:44 51.9 °F /  11.1 °C 41.3 °F /  5.2 °C 30.15 in /  1020.9 hPa NNW 0.1 mph /  0.2 km/h   67 % 0.00 in /  0 mm
22:47 51.8 °F /  11 °C 41.2 °F /  5.1 °C 30.15 in /  1020.9 hPa Calm     67 % 0.00 in /  0 mm
22:52 51.7 °F /  10.9 °C 41.1 °F /  5.1 °C 30.16 in /  1021.2 hPa Calm     67 % 0.00 in /  0 mm
22:57 51.5 °F /  10.8 °C 41.3 °F /  5.2 °C 30.16 in /  1021.2 hPa NNW 0.2 mph /  0.3 km/h 1.2 mph /  1.9 km/h 68 % 0.00 in /  0 mm
23:02 51.4 °F /  10.8 °C 41.2 °F /  5.1 °C 30.16 in /  1021.2 hPa NNW 0.1 mph /  0.2 km/h 1.0 mph /  1.6 km/h 68 % 0.00 in /  0 mm
23:07 51.2 °F /  10.7 °C 41.0 °F /  5 °C 30.16 in /  1021.2 hPa Calm   2.3 mph /  3.7 km/h 68 % 0.00 in /  0 mm
23:12 51.0 °F /  10.6 °C 40.8 °F /  4.9 °C 30.17 in /  1021.6 hPa NNW 0.8 mph /  1.3 km/h 2.0 mph /  3.2 km/h 68 % 0.00 in /  0 mm
23:17 50.9 °F /  10.5 °C 40.7 °F /  4.8 °C 30.16 in /  1021.2 hPa Calm     68 % 0.00 in /  0 mm
23:22 50.8 °F /  10.4 °C 40.6 °F /  4.8 °C 30.16 in /  1021.2 hPa Calm     68 % 0.00 in /  0 mm
23:27 50.6 °F /  10.3 °C 40.4 °F /  4.7 °C 30.15 in /  1020.9 hPa NNW 0.6 mph /  1 km/h 1.2 mph /  1.9 km/h 68 % 0.00 in /  0 mm
23:32 50.4 °F /  10.2 °C 40.2 °F /  4.6 °C 30.16 in /  1021.2 hPa Calm   1.2 mph /  1.9 km/h 68 % 0.00 in /  0 mm
23:37 50.3 °F /  10.2 °C 40.1 °F /  4.5 °C 30.16 in /  1021.2 hPa Calm   1.2 mph /  1.9 km/h 68 % 0.00 in /  0 mm
23:43 50.1 °F /  10.1 °C 39.9 °F /  4.4 °C 30.16 in /  1021.2 hPa Calm     68 % 0.00 in /  0 mm
23:48 50.0 °F /  10 °C 39.8 °F /  4.3 °C 30.16 in /  1021.2 hPa Calm     68 % 0.00 in /  0 mm
23:53 49.9 °F /  9.9 °C 40.1 °F /  4.5 °C 30.16 in /  1021.2 hPa Calm   1.2 mph /  1.9 km/h 69 % 0.00 in /  0 mm
23:58 49.8 °F /  9.9 °C 39.7 °F /  4.3 °C 30.16 in /  1021.2 hPa Calm   1.2 mph /  1.9 km/h 68 % 0.00 in /  0 mm
Crab Meadow Weather
Compliments of Weather Underground - 3 mb

Script developed by  Jim McMurry - jmcmurry@mwt.net Adapted for the template by  Wim van der Kuil - Leuven-Template.eu

Weather Terms: High Wind Warning - Sustained winds of 40 mph or greater for a duration of one hour or longer or gusts to 58 mph or greater.